Time;durP1;ratioP1;P1;durP2;ratioP2;P2;SDS_P1;SDS_P2;PMS_P1;PMS_P2;Temp;Humidity;BMP_temperature;BMP_pressure;BME280_temperature;BME280_humidity;BME280_pressure;Samples;Min_cycle;Max_cycle;Signal;HPM_P1;HPM_P2
2021/01/08 00:03:57;;;;;;;18.82;10.63;;;;;;;3.64;73.16;99829.77;3081289;76;21130;-68
2021/01/08 00:08:00;;;;;;;10.65;7.47;;;;;;;3.68;73.48;99818.58;3075261;76;21144;-68
2021/01/08 00:12:03;;;;;;;12.60;9.13;;;;;;;3.70;73.15;99827.22;3014756;78;21133;-67
2021/01/08 00:16:06;;;;;;;10.93;7.75;;;;;;;3.70;73.08;99821.95;3073183;76;21140;-68
2021/01/08 00:20:10;;;;;;;11.70;7.92;;;;;;;3.77;72.80;99821.98;3025905;78;21626;-68
2021/01/08 00:24:14;;;;;;;12.58;9.25;;;;;;;3.83;72.70;99824.69;3060435;77;22236;-68
2021/01/08 00:28:17;;;;;;;13.98;9.30;;;;;;;3.82;72.47;99825.63;3060451;77;21094;-67
2021/01/08 00:32:20;;;;;;;13.60;9.33;;;;;;;3.80;72.53;99825.73;3060570;77;21161;-67
2021/01/08 00:36:24;;;;;;;17.17;12.18;;;;;;;3.78;72.54;99822.36;3060397;77;21121;-67
2021/01/08 00:40:26;;;;;;;11.03;8.25;;;;;;;3.75;72.55;99823.00;3045248;77;21144;-68
2021/01/08 00:44:29;;;;;;;13.65;8.30;;;;;;;3.73;73.01;99823.08;3045810;77;21136;-69
2021/01/08 00:48:34;;;;;;;21.35;10.60;;;;;;;3.76;73.04;99819.43;3045181;78;21128;-69
2021/01/08 00:52:39;;;;;;;18.85;11.12;;;;;;;3.74;73.20;99818.68;3045620;78;21113;-67
2021/01/08 00:56:42;;;;;;;13.13;9.53;;;;;;;3.73;73.21;99820.45;3045338;78;21136;-67
2021/01/08 01:00:45;;;;;;;16.55;11.50;;;;;;;3.70;73.51;99823.27;3046633;77;21127;-69
2021/01/08 01:04:49;;;;;;;11.53;9.88;;;;;;;3.67;73.79;99826.95;3050474;78;21100;-67
2021/01/08 01:08:54;;;;;;;19.40;9.55;;;;;;;3.65;73.80;99827.97;3050578;77;21112;-67
2021/01/08 01:12:57;;;;;;;13.00;10.10;;;;;;;3.62;73.87;99830.80;3050521;77;21129;-67
2021/01/08 01:17:07;;;;;;;13.95;10.55;;;;;;;3.59;74.12;99821.78;3050549;76;21128;-68
2021/01/08 01:21:11;;;;;;;16.73;10.82;;;;;;;3.56;74.13;99821.48;3038650;78;21148;-68
2021/01/08 01:25:15;;;;;;;19.50;10.50;;;;;;;3.56;74.14;99823.66;3042259;78;21128;-68
2021/01/08 01:29:18;;;;;;;16.57;10.68;;;;;;;3.52;74.05;99818.18;3038932;77;21129;-68
2021/01/08 01:33:21;;;;;;;31.42;17.17;;;;;;;3.48;74.28;99823.73;3027236;78;21180;-68
2021/01/08 01:37:25;;;;;;;32.88;16.97;;;;;;;3.47;74.56;99829.45;3027093;78;21105;-67
2021/01/08 01:41:29;;;;;;;30.65;17.55;;;;;;;3.47;74.75;99826.83;3046668;78;21121;-66
2021/01/08 01:45:32;;;;;;;26.73;16.85;;;;;;;3.49;74.77;99822.80;3051191;78;21136;-68
2021/01/08 01:49:35;;;;;;;33.65;17.05;;;;;;;3.54;74.84;99829.94;3051263;76;21156;-67
2021/01/08 01:53:38;;;;;;;32.70;18.35;;;;;;;3.57;74.44;99825.34;3051260;78;21125;-67
2021/01/08 01:57:44;;;;;;;30.57;17.37;;;;;;;3.54;74.55;99823.36;3050963;77;21088;-67
2021/01/08 02:01:48;;;;;;;18.82;11.60;;;;;;;3.49;74.52;99822.31;3067556;77;21119;-68
2021/01/08 02:05:56;;;;;;;13.15;10.65;;;;;;;3.45;74.86;99826.07;3089338;77;21115;-67
2021/01/08 02:10:04;;;;;;;14.65;9.68;;;;;;;3.48;75.00;99825.88;3088968;77;21084;-68
2021/01/08 02:14:24;;;;;;;14.93;10.98;;;;;;;3.50;74.53;99820.06;3089318;77;21119;-67
2021/01/08 02:18:28;;;;;;;16.32;9.28;;;;;;;3.49;74.17;99822.31;3089224;77;21131;-67
2021/01/08 02:22:53;;;;;;;15.93;11.40;;;;;;;3.49;74.02;99816.23;3088861;76;21100;-67
2021/01/08 02:26:57;;;;;;;11.57;9.10;;;;;;;3.48;73.90;99808.79;3089129;77;21582;-68
2021/01/08 02:31:01;;;;;;;16.75;10.50;;;;;;;3.51;73.86;99809.91;3088760;77;21605;-68
2021/01/08 02:35:07;;;;;;;14.70;10.25;;;;;;;3.54;73.91;99807.58;3088850;76;21135;-67
2021/01/08 02:39:12;;;;;;;14.85;9.05;;;;;;;3.57;73.93;99800.81;3088853;76;21151;-67
2021/01/08 02:43:19;;;;;;;17.27;9.93;;;;;;;3.48;73.62;99783.81;3088799;76;21541;-67
2021/01/08 02:47:22;;;;;;;16.52;11.50;;;;;;;3.56;73.45;99797.36;3088739;77;21465;-68
2021/01/08 02:51:26;;;;;;;19.55;11.30;;;;;;;3.56;73.39;99799.12;3089028;77;21120;-67
2021/01/08 02:55:32;;;;;;;17.07;12.07;;;;;;;3.54;73.39;99797.06;3088761;76;21103;-67
2021/01/08 02:59:35;;;;;;;16.50;10.15;;;;;;;3.55;73.18;99802.24;3088476;77;21139;-67
2021/01/08 03:03:39;;;;;;;15.32;11.15;;;;;;;3.58;73.20;99805.14;3075597;77;21543;-67
2021/01/08 03:07:42;;;;;;;16.53;11.83;;;;;;;3.59;72.92;99797.63;3072880;76;21147;-67
2021/01/08 03:11:59;;;;;;;19.48;9.18;;;;;;;3.56;72.86;99799.98;3072920;77;21148;-67
2021/01/08 03:16:02;;;;;;;15.65;9.73;;;;;;;3.57;72.92;99797.73;3072897;77;21167;-68
2021/01/08 03:20:07;;;;;;;18.35;11.60;;;;;;;3.53;73.07;99796.20;3072783;77;21100;-67
2021/01/08 03:24:11;;;;;;;16.55;9.40;;;;;;;3.57;73.13;99796.42;3073181;77;21111;-66
2021/01/08 03:28:14;;;;;;;15.80;10.17;;;;;;;3.59;73.13;99800.73;3072809;77;21101;-69
2021/01/08 03:32:17;;;;;;;18.30;10.90;;;;;;;3.58;73.41;99795.93;3072849;77;21124;-68
2021/01/08 03:36:22;;;;;;;15.10;9.53;;;;;;;3.65;73.77;99796.41;3072998;77;21139;-68
2021/01/08 03:40:25;;;;;;;22.60;12.33;;;;;;;3.70;73.26;99796.97;3072930;77;21173;-66
2021/01/08 03:44:28;;;;;;;16.02;12.07;;;;;;;3.73;73.23;99799.41;3038356;77;21113;-68
2021/01/08 03:48:32;;;;;;;17.50;10.55;;;;;;;3.78;73.37;99797.36;3016998;78;21406;-67
2021/01/08 03:52:34;;;;;;;18.80;11.78;;;;;;;3.80;72.94;99790.22;3048651;77;21125;-68
2021/01/08 03:56:37;;;;;;;21.70;14.33;;;;;;;3.75;72.98;99795.37;3072813;77;21136;-68
2021/01/08 04:00:40;;;;;;;18.57;12.70;;;;;;;3.71;73.22;99788.13;3072364;77;21121;-67
2021/01/08 04:04:44;;;;;;;25.00;15.15;;;;;;;3.69;73.06;99785.61;3050669;78;21426;-69
2021/01/08 04:08:47;;;;;;;18.42;12.88;;;;;;;3.67;73.26;99791.90;3027503;78;21140;-67
2021/01/08 04:12:50;;;;;;;19.45;13.45;;;;;;;3.65;73.24;99788.52;3027590;78;21148;-68
2021/01/08 04:16:53;;;;;;;18.20;11.85;;;;;;;3.61;73.15;99790.97;3027258;78;21152;-71
2021/01/08 04:20:56;;;;;;;19.73;12.88;;;;;;;3.56;73.54;99786.84;3027423;78;21116;-71
2021/01/08 04:25:03;;;;;;;17.27;13.53;;;;;;;3.54;73.64;99784.77;3027565;78;21152;-71
2021/01/08 04:29:06;;;;;;;22.70;14.53;;;;;;;3.53;73.94;99787.48;3027635;77;21116;-70
2021/01/08 04:33:09;;;;;;;27.05;17.40;;;;;;;3.50;74.17;99786.36;3027747;78;21124;-70
2021/01/08 04:37:12;;;;;;;27.40;17.10;;;;;;;3.50;74.31;99781.93;3027252;78;21551;-71
2021/01/08 04:41:17;;;;;;;30.82;14.50;;;;;;;3.49;74.40;99777.61;3027278;78;21117;-70
2021/01/08 04:45:20;;;;;;;34.83;19.50;;;;;;;3.49;74.43;99778.92;3027478;78;21141;-70
2021/01/08 04:49:24;;;;;;;29.12;16.10;;;;;;;3.49;74.36;99778.92;3027164;77;21548;-70
2021/01/08 04:53:29;;;;;;;22.82;14.15;;;;;;;3.50;74.19;99777.16;3027396;78;21585;-70
2021/01/08 04:57:35;;;;;;;20.50;13.88;;;;;;;3.45;74.16;99782.69;3027072;78;21878;-70
2021/01/08 05:01:38;;;;;;;17.35;13.75;;;;;;;3.42;74.04;99781.08;3025569;78;21112;-72
2021/01/08 05:05:42;;;;;;;20.00;13.70;;;;;;;3.41;73.93;99774.13;3017541;78;21137;-67
2021/01/08 05:09:46;;;;;;;19.82;13.25;;;;;;;3.39;73.76;99774.69;3017101;78;21136;-70
2021/01/08 05:14:01;;;;;;;21.52;13.45;;;;;;;3.35;73.67;99774.98;3017326;78;21129;-69
2021/01/08 05:18:05;;;;;;;22.05;15.05;;;;;;;3.33;73.68;99775.52;3049126;76;21602;-68
2021/01/08 05:22:08;;;;;;;22.22;14.83;;;;;;;3.31;73.77;99778.71;3063036;77;21128;-66
2021/01/08 05:26:14;;;;;;;23.25;15.45;;;;;;;3.32;73.88;99780.41;3043236;77;21149;-69
2021/01/08 05:30:25;;;;;;;24.82;14.28;;;;;;;3.28;73.89;99778.45;3072976;77;21133;-67
2021/01/08 05:34:29;;;;;;;23.98;15.20;;;;;;;3.29;73.83;99773.08;3072995;77;21105;-68
2021/01/08 05:38:34;;;;;;;20.08;14.20;;;;;;;3.24;73.94;99777.78;3061414;77;21143;-68
2021/01/08 05:42:57;;;;;;;29.20;18.37;;;;;;;3.21;74.02;99777.10;3045266;77;21574;-68
2021/01/08 05:47:02;;;;;;;20.65;15.98;;;;;;;3.21;73.99;99775.33;3045524;77;21101;-67
2021/01/08 05:51:06;;;;;;;24.45;17.00;;;;;;;3.20;73.71;99772.33;3045458;78;21117;-70
2021/01/08 05:55:14;;;;;;;26.15;15.63;;;;;;;3.16;73.67;99780.02;3045503;78;21129;-68
2021/01/08 05:59:22;;;;;;;27.75;17.23;;;;;;;3.11;73.82;99773.72;3045585;77;21543;-68
2021/01/08 06:03:26;;;;;;;29.18;17.52;;;;;;;3.08;73.81;99771.73;3058128;77;21128;-69
2021/01/08 06:07:29;;;;;;;26.75;19.48;;;;;;;3.07;73.91;99772.21;3070798;77;21101;-68
2021/01/08 06:11:37;;;;;;;24.52;15.78;;;;;;;3.05;73.99;99777.17;3070310;77;21453;-68
2021/01/08 06:15:40;;;;;;;22.32;14.73;;;;;;;3.02;74.42;99775.55;3070551;76;21125;-68
2021/01/08 06:19:46;;;;;;;24.47;16.40;;;;;;;3.03;74.75;99782.98;3070622;76;21148;-69
2021/01/08 06:23:49;;;;;;;28.62;17.60;;;;;;;3.06;74.67;99781.03;3070212;77;21619;-67
2021/01/08 06:27:54;;;;;;;20.60;15.50;;;;;;;3.04;74.70;99785.99;3070308;77;21137;-70
2021/01/08 06:31:58;;;;;;;22.13;15.15;;;;;;;3.04;74.82;99784.67;3070418;76;21086;-68
2021/01/08 06:36:18;;;;;;;20.17;14.55;;;;;;;2.94;75.05;99763.34;3070440;77;21117;-68
2021/01/08 06:40:26;;;;;;;27.10;16.32;;;;;;;3.08;74.86;99784.87;3070292;76;21102;-68
2021/01/08 06:44:32;;;;;;;26.40;16.17;;;;;;;3.12;74.71;99782.44;3057502;76;21094;-69
2021/01/08 06:48:38;;;;;;;27.62;16.37;;;;;;;3.11;74.40;99787.31;3070973;77;21125;-69
2021/01/08 06:52:46;;;;;;;24.65;16.55;;;;;;;3.10;74.41;99791.73;3068212;76;21129;-71
2021/01/08 06:56:52;;;;;;;28.73;16.85;;;;;;;3.12;74.39;99799.52;3064765;76;21098;-69
2021/01/08 07:00:58;;;;;;;25.45;16.30;;;;;;;3.12;74.42;99796.44;3062120;77;21105;-69
2021/01/08 07:05:03;;;;;;;21.90;15.70;;;;;;;3.13;74.49;99805.14;3038516;77;21096;-68
2021/01/08 07:09:07;;;;;;;28.60;18.67;;;;;;;3.13;74.12;99807.77;3040826;76;21180;-68
2021/01/08 07:13:10;;;;;;;23.70;13.78;;;;;;;3.06;73.97;99809.08;3059516;77;21124;-70
2021/01/08 07:17:13;;;;;;;30.60;19.10;;;;;;;3.03;73.93;99814.52;3065710;76;21093;-67
2021/01/08 07:21:23;;;;;;;24.27;15.28;;;;;;;3.01;73.89;99815.91;3065625;77;21128;-69
2021/01/08 07:25:28;;;;;;;23.07;15.48;;;;;;;2.94;73.85;99820.67;3066256;77;21128;-68
2021/01/08 07:29:32;;;;;;;24.75;17.17;;;;;;;2.88;74.20;99827.59;3065468;77;21128;-68
2021/01/08 07:33:48;;;;;;;29.98;16.70;;;;;;;2.88;74.39;99832.85;3034360;77;21902;-67
2021/01/08 07:38:16;;;;;;;24.23;16.30;;;;;;;2.89;74.39;99837.17;3035537;77;21132;-68
2021/01/08 07:42:38;;;;;;;22.25;14.73;;;;;;;2.90;74.36;99831.47;3065423;77;21089;-68
2021/01/08 07:46:41;;;;;;;25.52;15.45;;;;;;;2.95;74.35;99832.04;3065628;77;21056;-68
2021/01/08 07:50:59;;;;;;;23.27;17.23;;;;;;;2.94;74.46;99832.98;3065318;77;21108;-69
2021/01/08 07:55:02;;;;;;;30.80;20.00;;;;;;;2.96;74.33;99837.22;3031520;78;21125;-68
2021/01/08 07:59:07;;;;;;;19.87;15.15;;;;;;;2.98;74.04;99834.03;3050760;78;21107;-67
2021/01/08 08:03:13;;;;;;;24.23;17.77;;;;;;;3.01;74.07;99827.73;3046644;77;21092;-68
2021/01/08 08:07:17;;;;;;;25.30;15.85;;;;;;;3.07;74.13;99830.03;3060062;76;21566;-68
2021/01/08 08:11:26;;;;;;;23.77;14.85;;;;;;;3.13;74.20;99826.17;3075759;76;21163;-68
2021/01/08 08:15:25;;;;;;;23.47;15.23;;;;;;;3.19;74.15;99831.55;3078919;76;21120;-69
2021/01/08 08:19:34;;;;;;;23.50;14.80;;;;;;;3.21;74.10;99831.84;3062610;76;21455;-69
2021/01/08 08:23:38;;;;;;;20.88;16.42;;;;;;;3.27;74.00;99839.84;3088785;76;21137;-68
2021/01/08 08:27:41;;;;;;;28.60;18.12;;;;;;;3.32;73.83;99839.55;3060632;77;21091;-68
2021/01/08 08:31:47;;;;;;;32.28;23.30;;;;;;;3.41;73.58;99843.80;3061432;76;21130;-68
2021/01/08 08:35:51;;;;;;;18.77;14.55;;;;;;;3.53;73.67;99850.60;3083739;76;21106;-67
2021/01/08 08:40:02;;;;;;;24.52;16.57;;;;;;;3.66;73.68;99850.70;3075438;76;21112;-69
2021/01/08 08:44:09;;;;;;;26.95;19.15;;;;;;;3.80;73.48;99855.13;3080581;76;21632;-69
2021/01/08 08:48:12;;;;;;;26.75;18.50;;;;;;;3.95;73.21;99851.58;3099035;76;21137;-68
2021/01/08 08:52:27;;;;;;;26.07;16.15;;;;;;;4.09;73.03;99848.08;3073146;76;21146;-68
2021/01/08 08:56:32;;;;;;;24.95;16.82;;;;;;;4.21;72.48;99850.91;3072081;76;21589;-67
2021/01/08 09:00:38;;;;;;;24.10;13.80;;;;;;;4.34;72.36;99851.84;2989861;77;23696;-69
2021/01/08 09:05:00;;;;;;;20.68;14.65;;;;;;;4.41;71.95;99845.23;3040724;76;21682;-68
2021/01/08 09:09:19;;;;;;;19.57;13.65;;;;;;;4.48;71.78;99852.73;3098858;76;21124;-68
2021/01/08 09:13:36;;;;;;;22.90;14.10;;;;;;;4.55;71.52;99850.11;3108212;76;21136;-68
2021/01/08 09:17:42;;;;;;;15.00;11.78;;;;;;;4.64;71.40;99848.19;3077522;76;21114;-68
2021/01/08 09:21:50;;;;;;;20.60;15.45;;;;;;;4.69;71.57;99836.88;3088411;76;21586;-67
2021/01/08 09:25:54;;;;;;;24.82;17.05;;;;;;;4.68;70.99;99849.67;3093583;76;21133;-68
2021/01/08 09:30:11;;;;;;;22.52;14.60;;;;;;;4.66;71.23;99853.38;3067980;76;21136;-70
2021/01/08 09:34:22;;;;;;;23.22;16.67;;;;;;;4.65;71.07;99843.29;3095939;76;21137;-67
2021/01/08 09:38:26;;;;;;;25.02;16.12;;;;;;;4.62;70.87;99847.91;3112612;76;21125;-69
2021/01/08 09:42:35;;;;;;;27.93;19.62;;;;;;;4.58;71.29;99849.42;3097707;76;21118;-69
2021/01/08 09:47:08;;;;;;;23.47;16.62;;;;;;;4.59;71.13;99850.28;3073925;76;21137;-68
2021/01/08 09:51:11;;;;;;;31.62;17.80;;;;;;;4.55;70.88;99850.94;3067137;76;21172;-67
2021/01/08 09:55:23;;;;;;;27.50;16.32;;;;;;;4.54;71.22;99856.33;3085771;76;21149;-68
2021/01/08 09:59:26;;;;;;;28.05;19.12;;;;;;;4.51;71.44;99858.66;3100091;76;21129;-68
2021/01/08 10:03:29;;;;;;;23.70;18.60;;;;;;;4.52;71.83;99859.50;3087187;76;21140;-67
2021/01/08 10:07:42;;;;;;;33.18;18.25;;;;;;;4.57;72.11;99852.17;3128293;76;21109;-68
2021/01/08 10:11:58;;;;;;;27.55;20.08;;;;;;;4.63;72.02;99856.20;3112684;76;21618;-68
2021/01/08 10:16:09;;;;;;;30.80;17.82;;;;;;;4.62;71.91;99850.08;3099900;76;21096;-68
2021/01/08 10:20:15;;;;;;;22.05;15.30;;;;;;;4.67;72.36;99840.57;3126748;76;21129;-69
2021/01/08 10:24:25;;;;;;;31.12;20.00;;;;;;;4.71;72.45;99852.11;3052596;77;21149;-68
2021/01/08 10:28:28;;;;;;;28.38;19.95;;;;;;;4.76;72.33;99849.67;3063210;77;21151;-68
2021/01/08 10:32:31;;;;;;;25.65;16.32;;;;;;;4.78;72.32;99860.95;3045450;77;21133;-69
2021/01/08 10:36:35;;;;;;;27.07;16.07;;;;;;;4.82;72.33;99849.27;3024471;77;21143;-68
2021/01/08 10:40:41;;;;;;;27.42;20.52;;;;;;;4.89;72.44;99851.86;3047930;77;21149;-67
2021/01/08 10:44:44;;;;;;;27.35;19.37;;;;;;;4.96;71.98;99849.67;3079788;76;21072;-69
2021/01/08 10:48:50;;;;;;;31.07;17.42;;;;;;;4.98;71.88;99851.28;3102313;76;21091;-68
2021/01/08 10:52:53;;;;;;;29.45;16.95;;;;;;;5.01;71.80;99854.16;3086457;76;21119;-69
2021/01/08 10:57:00;;;;;;;24.50;17.45;;;;;;;5.01;71.51;99851.53;3101362;76;21121;-68
2021/01/08 11:01:03;;;;;;;22.87;14.47;;;;;;;5.04;71.85;99846.55;3090734;76;21536;-68
2021/01/08 11:05:09;;;;;;;20.80;15.15;;;;;;;5.05;71.42;99843.81;3034245;77;21165;-68
2021/01/08 11:09:12;;;;;;;20.40;14.90;;;;;;;5.03;71.29;99848.34;3072799;77;21077;-67
2021/01/08 11:13:15;;;;;;;22.85;15.25;;;;;;;5.03;71.71;99848.81;3070247;77;21105;-67
2021/01/08 11:17:18;;;;;;;19.95;14.15;;;;;;;5.05;71.88;99842.50;3114202;76;21100;-66
2021/01/08 11:21:22;;;;;;;18.48;13.68;;;;;;;5.08;71.82;99848.87;3100907;76;21156;-68
2021/01/08 11:25:25;;;;;;;24.23;16.50;;;;;;;5.10;71.87;99843.48;3109395;76;21074;-67
2021/01/08 11:29:28;;;;;;;21.68;14.45;;;;;;;5.02;71.83;99841.84;3072726;77;21090;-67
2021/01/08 11:33:31;;;;;;;18.40;13.93;;;;;;;4.97;72.21;99837.73;3113765;76;21168;-67
2021/01/08 11:37:34;;;;;;;20.27;15.45;;;;;;;4.99;72.09;99846.84;3122389;76;21104;-67
2021/01/08 11:41:38;;;;;;;21.97;16.15;;;;;;;4.98;72.14;99839.41;3105020;76;21082;-68
2021/01/08 11:45:40;;;;;;;24.00;16.48;;;;;;;5.03;72.64;99836.94;3093131;76;22602;-67
2021/01/08 11:49:45;;;;;;;26.00;15.03;;;;;;;5.12;72.94;99836.35;3072661;76;21101;-67
2021/01/08 11:53:49;;;;;;;24.72;16.57;;;;;;;5.19;72.85;99833.66;3073639;76;21096;-68
2021/01/08 11:57:52;;;;;;;20.37;15.70;;;;;;;5.23;72.61;99832.51;3046907;77;21595;-67
2021/01/08 12:02:02;;;;;;;30.08;17.90;;;;;;;5.28;72.71;99825.13;3042939;77;21531;-69
2021/01/08 12:06:07;;;;;;;24.18;16.70;;;;;;;5.34;72.77;99821.23;3029325;77;21130;-69
2021/01/08 12:10:11;;;;;;;28.02;17.73;;;;;;;5.41;72.73;99826.95;3071521;77;21638;-68
2021/01/08 12:14:14;;;;;;;23.95;15.05;;;;;;;5.46;72.63;99827.96;3072889;76;21131;-69
2021/01/08 12:18:18;;;;;;;25.65;16.17;;;;;;;5.50;72.44;99831.61;3071668;77;21098;-68
2021/01/08 12:22:22;;;;;;;23.62;16.97;;;;;;;5.52;72.24;99832.35;3068857;76;21093;-69
2021/01/08 12:26:25;;;;;;;23.18;16.52;;;;;;;5.55;72.27;99837.41;3079407;76;21129;-64
2021/01/08 12:30:28;;;;;;;19.67;15.40;;;;;;;5.56;72.10;99837.78;3076245;77;21081;-71
2021/01/08 12:34:31;;;;;;;21.77;12.88;;;;;;;5.58;71.92;99830.61;3075938;76;21137;-70
2021/01/08 12:38:34;;;;;;;32.38;16.67;;;;;;;5.58;71.87;99831.92;3078676;77;21572;-71
2021/01/08 12:42:37;;;;;;;19.55;12.43;;;;;;;5.64;71.91;99834.63;3064248;77;21543;-70
2021/01/08 12:46:41;;;;;;;20.37;14.90;;;;;;;5.70;72.02;99833.36;3042711;76;21188;-70
2021/01/08 12:50:44;;;;;;;21.52;16.32;;;;;;;5.75;72.07;99834.34;3059197;77;21116;-69
2021/01/08 12:54:47;;;;;;;29.90;17.55;;;;;;;5.80;71.89;99842.81;3048256;77;21116;-71
2021/01/08 12:58:51;;;;;;;29.72;20.52;;;;;;;5.79;71.53;99835.81;3060887;77;21104;-69
2021/01/08 13:02:54;;;;;;;22.87;15.48;;;;;;;5.76;71.22;99832.08;3055906;77;21153;-70
2021/01/08 13:06:57;;;;;;;21.40;13.72;;;;;;;5.77;71.19;99835.94;3045938;76;21120;-70
2021/01/08 13:10:59;;;;;;;25.70;17.00;;;;;;;5.77;71.75;99838.58;3035612;77;21089;-70
2021/01/08 13:15:05;;;;;;;24.67;20.10;;;;;;;5.83;71.96;99835.50;3042968;76;21148;-69
2021/01/08 13:19:08;;;;;;;23.60;16.37;;;;;;;5.86;71.88;99836.61;3050903;77;21579;-69
2021/01/08 13:23:11;;;;;;;27.40;16.25;;;;;;;5.85;71.69;99844.16;3047444;77;21148;-71
2021/01/08 13:27:16;;;;;;;18.60;14.53;;;;;;;5.83;71.99;99838.14;3047224;77;21113;-69
2021/01/08 13:31:23;;;;;;;27.65;15.80;;;;;;;5.82;71.63;99844.38;3071276;77;21093;-70
2021/01/08 13:35:29;;;;;;;23.52;17.37;;;;;;;5.82;71.69;99849.66;3062264;77;21101;-70
2021/01/08 13:39:32;;;;;;;30.03;19.27;;;;;;;5.83;71.70;99850.02;3060750;77;21162;-69
2021/01/08 13:43:37;;;;;;;25.45;18.50;;;;;;;5.84;71.53;99845.60;3069876;77;21132;-70
2021/01/08 13:47:40;;;;;;;26.42;17.75;;;;;;;5.84;71.81;99851.71;3053293;77;21120;-65
2021/01/08 13:51:43;;;;;;;25.45;17.20;;;;;;;5.82;71.87;99856.75;3060768;77;21170;-63
2021/01/08 13:55:47;;;;;;;24.50;17.42;;;;;;;5.80;71.79;99862.12;3046696;77;21112;-66
2021/01/08 13:59:50;;;;;;;25.27;18.75;;;;;;;5.88;71.90;99867.33;3046423;78;21117;-64
2021/01/08 14:03:53;;;;;;;21.57;17.62;;;;;;;5.90;71.62;99866.28;3063573;77;21153;-61
2021/01/08 14:07:56;;;;;;;28.50;17.48;;;;;;;5.87;71.60;99867.82;3057725;77;21164;-62
2021/01/08 14:12:00;;;;;;;25.48;17.75;;;;;;;5.79;71.68;99871.45;3061051;77;21133;-62
2021/01/08 14:16:05;;;;;;;26.57;18.65;;;;;;;5.74;72.11;99878.84;3063829;77;21113;-63
2021/01/08 14:20:09;;;;;;;32.78;23.15;;;;;;;5.68;72.37;99888.02;3057174;76;21081;-62
2021/01/08 14:24:13;;;;;;;35.60;19.20;;;;;;;5.64;72.54;99885.22;3069112;77;21096;-62
2021/01/08 14:28:16;;;;;;;29.82;17.45;;;;;;;5.61;72.57;99890.71;3054863;77;21101;-62
2021/01/08 14:32:18;;;;;;;23.25;18.65;;;;;;;5.54;72.91;99891.59;3065116;76;21140;-63
2021/01/08 14:36:30;;;;;;;20.77;15.30;;;;;;;5.47;73.12;99893.80;3071733;77;21148;-62
2021/01/08 14:40:34;;;;;;;20.75;15.48;;;;;;;5.39;73.57;99900.89;3066661;77;21190;-63
2021/01/08 14:44:38;;;;;;;25.72;17.40;;;;;;;5.32;73.96;99900.94;3060101;77;21152;-63
2021/01/08 14:48:41;;;;;;;28.00;16.67;;;;;;;5.26;74.29;99901.36;3064076;77;21589;-64
2021/01/08 14:52:44;;;;;;;20.05;14.30;;;;;;;5.18;74.72;99901.86;3069443;77;21159;-63
2021/01/08 14:56:51;;;;;;;20.35;14.30;;;;;;;5.13;75.13;99906.59;3065415;77;21116;-68
2021/01/08 15:00:55;;;;;;;18.17;13.85;;;;;;;5.03;75.39;99912.08;3060369;76;21091;-66
2021/01/08 15:04:58;;;;;;;20.95;14.55;;;;;;;4.98;75.97;99912.36;3049149;76;21156;-62
2021/01/08 15:09:01;;;;;;;17.60;14.05;;;;;;;4.90;76.14;99912.86;3031129;78;21851;-63
2021/01/08 15:13:05;;;;;;;17.00;13.35;;;;;;;4.84;76.40;99908.85;3030925;78;21108;-63
2021/01/08 15:17:08;;;;;;;20.48;14.07;;;;;;;4.81;76.63;99917.41;3029107;78;21144;-63
2021/01/08 15:21:13;;;;;;;20.20;14.30;;;;;;;4.82;76.90;99921.28;3020706;78;21127;-64
2021/01/08 15:25:20;;;;;;;23.27;15.75;;;;;;;4.80;76.87;99920.99;3022114;78;21158;-63
2021/01/08 15:29:23;;;;;;;20.88;14.30;;;;;;;4.71;77.05;99923.25;3001674;78;21133;-67
2021/01/08 15:33:27;;;;;;;16.87;13.28;;;;;;;4.65;77.38;99922.33;3044490;77;21132;-65
2021/01/08 15:37:33;;;;;;;20.50;12.98;;;;;;;4.66;77.68;99930.61;3054014;77;21120;-65
2021/01/08 15:41:36;;;;;;;25.50;14.83;;;;;;;4.66;77.70;99928.46;3056553;77;21078;-64
2021/01/08 15:46:18;;;;;;;19.60;13.68;;;;;;;4.66;77.70;99928.46;3072173;77;21554;-64
2021/01/08 15:50:21;;;;;;;15.15;13.00;;;;;;;4.64;77.80;99933.81;3042486;77;21080;-64
2021/01/08 15:55:01;;;;;;;24.95;14.55;;;;;;;4.66;77.91;99929.29;3008937;79;21117;-65
2021/01/08 15:59:04;;;;;;;16.93;11.40;;;;;;;4.68;78.01;99931.84;2927616;77;21160;-64
2021/01/08 16:03:44;;;;;;;20.23;11.63;;;;;;;4.66;77.89;99932.41;3039760;77;21081;-64
2021/01/08 16:07:46;;;;;;;18.85;12.60;;;;;;;4.66;77.98;99933.73;3064694;77;21098;-64
2021/01/08 16:11:52;;;;;;;15.23;11.45;;;;;;;4.71;78.08;99939.55;3096922;76;21094;-64
2021/01/08 16:16:27;;;;;;;17.27;13.40;;;;;;;4.65;77.92;99943.41;3055092;77;21552;-64
2021/01/08 16:20:31;;;;;;;20.60;13.13;;;;;;;4.59;78.16;99949.07;3046928;77;21125;-64
2021/01/08 16:25:12;;;;;;;20.60;13.45;;;;;;;4.54;78.41;99949.84;3034611;78;21920;-64
2021/01/08 16:29:15;;;;;;;20.50;16.48;;;;;;;4.52;78.67;99951.69;3053356;78;21112;-64
2021/01/08 16:33:51;;;;;;;32.73;20.12;;;;;;;4.47;78.87;99958.58;3054558;78;21117;-64
2021/01/08 16:37:54;;;;;;;29.10;19.87;;;;;;;4.43;79.00;99965.81;3033880;78;21112;-64
2021/01/08 16:41:57;;;;;;;23.92;19.65;;;;;;;4.42;79.32;99964.13;3037734;78;21105;-64
2021/01/08 16:46:00;;;;;;;30.12;19.85;;;;;;;4.43;79.18;99968.45;3049719;78;21120;-65
2021/01/08 16:50:07;;;;;;;31.77;22.77;;;;;;;4.46;79.05;99971.84;3044797;78;21165;-64
2021/01/08 16:54:13;;;;;;;25.62;19.70;;;;;;;4.47;78.91;99970.89;3053415;78;21110;-66
2021/01/08 16:58:16;;;;;;;24.27;17.37;;;;;;;4.41;79.08;99972.11;3049688;78;21093;-64
2021/01/08 17:02:18;;;;;;;53.68;37.45;;;;;;;4.40;79.13;99972.59;3053325;77;21133;-64
2021/01/08 17:06:23;;;;;;;32.55;22.48;;;;;;;4.41;79.30;99979.55;3029358;77;21121;-64
2021/01/08 17:10:26;;;;;;;42.73;24.70;;;;;;;4.47;79.34;99979.66;3050891;77;21131;-65
2021/01/08 17:14:32;;;;;;;26.07;18.98;;;;;;;4.50;79.26;99981.23;3058982;77;21583;-64
2021/01/08 17:18:36;;;;;;;25.20;14.90;;;;;;;4.45;79.28;99984.63;3046077;77;21139;-63
2021/01/08 17:22:41;;;;;;;30.60;18.75;;;;;;;4.48;79.38;99982.66;3017470;77;21139;-64
2021/01/08 17:26:46;;;;;;;25.12;16.60;;;;;;;4.50;79.41;99985.19;3040453;77;21111;-65
2021/01/08 17:30:51;;;;;;;23.57;16.55;;;;;;;4.51;79.45;99996.09;3040417;77;21131;-64
2021/01/08 17:35:03;;;;;;;25.82;17.00;;;;;;;4.50;79.49;99999.67;3012492;78;21125;-64
2021/01/08 17:39:11;;;;;;;29.95;19.80;;;;;;;4.49;79.60;100003.25;3027942;76;21168;-62
2021/01/08 17:43:19;;;;;;;23.22;15.78;;;;;;;4.49;79.75;99999.30;3049928;77;21484;-64
2021/01/08 17:47:52;;;;;;;32.33;19.62;;;;;;;4.49;79.78;99999.30;3028920;76;21109;-64
2021/01/08 17:52:05;;;;;;;26.12;19.52;;;;;;;4.50;79.75;100002.30;3020119;76;21526;-65
2021/01/08 17:56:29;;;;;;;26.68;20.95;;;;;;;4.50;79.74;100008.89;3042442;77;21606;-64
2021/01/08 18:00:33;;;;;;;26.97;20.70;;;;;;;4.48;79.84;100009.46;3043433;77;21132;-63
2021/01/08 18:04:36;;;;;;;31.07;22.25;;;;;;;4.47;80.02;100011.27;2973765;80;21131;-63
2021/01/08 18:08:40;;;;;;;29.20;21.75;;;;;;;4.49;80.06;100015.97;3010185;79;21204;-62
2021/01/08 18:13:05;;;;;;;26.62;19.95;;;;;;;4.50;80.01;100019.42;3041585;77;21120;-63
2021/01/08 18:17:08;;;;;;;24.10;21.02;;;;;;;4.51;79.90;100019.35;2968461;78;21570;-64
2021/01/08 18:21:13;;;;;;;30.25;20.12;;;;;;;4.43;79.89;100025.08;2968875;78;22134;-63
2021/01/08 18:25:17;;;;;;;35.30;24.30;;;;;;;4.41;79.96;100022.15;2967535;80;21712;-61
2021/01/08 18:29:22;;;;;;;24.67;18.52;;;;;;;4.35;80.11;100023.39;2977363;79;21140;-63
2021/01/08 18:33:25;;;;;;;29.05;17.25;;;;;;;4.36;80.32;100026.85;2991471;79;21108;-62
2021/01/08 18:37:29;;;;;;;20.88;15.65;;;;;;;4.36;80.04;100036.08;2990367;79;21163;-62
2021/01/08 18:41:42;;;;;;;23.10;14.65;;;;;;;4.40;80.36;100038.44;2953906;79;21139;-62
2021/01/08 18:45:45;;;;;;;18.13;14.40;;;;;;;4.45;79.94;100038.62;2951158;79;22072;-61
2021/01/08 18:49:50;;;;;;;23.40;14.73;;;;;;;4.47;79.63;100036.74;2968344;78;21128;-62
2021/01/08 18:53:57;;;;;;;25.55;17.07;;;;;;;4.48;79.80;100042.38;2852902;81;21622;-62
2021/01/08 18:58:02;;;;;;;20.00;15.20;;;;;;;4.48;79.51;100041.07;2957938;79;21125;-63
2021/01/08 19:02:08;;;;;;;25.43;16.00;;;;;;;4.42;79.50;100043.14;2970149;78;21111;-61
2021/01/08 19:06:13;;;;;;;18.00;15.38;;;;;;;4.39;79.56;100049.05;2874630;81;21146;-62